ESSD/BLE METAR and TAF weather

Enter ICAO airport designator
Station Type Date Time Source
ESSD METAR 2020/09/26 11:20 UTC NOAA

ESSD 261120Z AUTO 36004KT 330V030 5000 BR VV007 10/09 Q1006


Station Type Date Time Source
ESSD Decoded METAR 2020/09/26 11:20 UTC NOAA

Borlange, Sweden (ESSD) 60-26N 015-31E 0M
Sep 26, 2020 - 07:20 AM EDT / 2020.09.26 1120 UTC
Wind: from the N (360 degrees) at 5 MPH (4 KT) (direction variable):0
Visibility: 3 mile(s):0
Sky conditions: obscured
Weather: mist
Temperature: 50 F (10 C)
Dew Point: 48 F (9 C)
Relative Humidity: 93%
Pressure (altimeter): 29.71 in. Hg (1006 hPa)
ob: ESSD 261120Z AUTO 36004KT 330V030 5000 BR VV007 10/09 Q1006
cycle: 11

Station Type Date Time Source
ESSD TAF 2018/05/02 04:48 UTC NOAA

TAF TAF ESSD 020320Z 0204/0412 27008KT 9999 BKN019 PROB40 0204/0209 BKN006

Example: see airport list